Aérodrome :
LOGIN :

S'inscrire | Disclaimer

   EN    FR    IT 

 










Légende :    VFR   VFR Marginal   IFR   IFR Intensif   IFR Très Intensif
Visi : 
Plafond : 
>= 8 km
>= 3000ft
5 à 8 km
1000 à 3000 ft
1500m à 5 km
500 à 1000 ft
800 à 1500m
200 à 500 ft
< 800m
< 200 ft
Symboles :   Orages  Brouillard  Fortes neiges  Fortes précipitations  Vent > 20 kt
SIGMETs :   Divers  Orages  Givrage  Turbulence  Onde Orograph.  Cendres Volcan.







- Altitude de l'aérodrome : 290 ft
- Code IATA : OSI


LDOS - Osijek

DERNIER METAR :
  • 181200Z 35012KT 9999 -RA SCT007 BKN030 04/03 Q1015

METARs EXPIRÉS :
  • 181130Z 34011KT 9999 -RA SCT003 BKN007 OVC030 04/03 Q1015
  • 181100Z 34012KT 9999 -RA BKN007 OVC030 04/03 Q1015
  • 181030Z 34011KT 9999 -RA BKN007 04/03 Q1015
  • 181000Z 35013KT 9999 BKN007 04/03 Q1014
  • 180930Z 01015KT 9999 BKN007 05/03 Q1014

TAF TAF LDOS
Valide du 18 à 12h jusqu'au 19 à 12h UTC


181125Z 1812/1912 35012KT 9999 SCT010 OVC025 TX03/1812Z TNM02/1905Z
PROB40
TEMPO 1812/1815 4500 RA OVC007
PROB30
TEMPO 1812/1815 2000 RASN OVC005
BECMG 1822/1900 VRB02KT
Pas de NOTAMs connus pour ce terrain.
1 SIGMET publié pour la FIR Zagreb (LDZO) :
 
Turbulence forte
LDZO SIGMET 1 VALID 181200/181400 LDZA
LDZO ZAGREB FIR SEV TURB FCST WI N4351 E01409 - N4431 E01322 - N4518 E01259 - N4533 E01323 - N4540 E01435 - N4417 E01536 - N4351 E01409 SFC/5000FT STNR NC=



MET'MAP, la Météo Aéronautique d'un coup d'oeil ! - Copyright ORBIFLY Décembre 2007 - Disclaimer

ORBIFLY MET'MAP TEAM :

Programmation & Développement : Alexandra Zaïnal
Conception & Développement : Baudouin d'Aumeries
Co-Programmation & Développement : Marc-Olivier Méhu
Soutien technique & logistique : Manuel Goepfert

Contact : metmap@orbifly.com




SOURCES & CREDITS :

   NOAA